sensor_id;sensor_type;location;lat;lon;timestamp;P1;durP1;ratioP1;P2;durP2;ratioP2
5674;SDS011;2860;54.284;10.158;2024-03-02T00:00:11;55.65;;;29.30;;
5674;SDS011;2860;54.284;10.158;2024-03-02T00:02:41;58.05;;;30.23;;
5674;SDS011;2860;54.284;10.158;2024-03-02T00:05:07;57.28;;;31.25;;
5674;SDS011;2860;54.284;10.158;2024-03-02T00:07:35;52.38;;;28.38;;
5674;SDS011;2860;54.284;10.158;2024-03-02T00:10:01;59.30;;;30.63;;
5674;SDS011;2860;54.284;10.158;2024-03-02T00:12:32;52.63;;;29.15;;
5674;SDS011;2860;54.284;10.158;2024-03-02T00:14:59;71.60;;;30.95;;
5674;SDS011;2860;54.284;10.158;2024-03-02T00:17:27;53.58;;;29.55;;
5674;SDS011;2860;54.284;10.158;2024-03-02T00:19:54;54.15;;;30.15;;
5674;SDS011;2860;54.284;10.158;2024-03-02T00:22:20;51.50;;;29.08;;
5674;SDS011;2860;54.284;10.158;2024-03-02T00:24:45;54.15;;;30.10;;
5674;SDS011;2860;54.284;10.158;2024-03-02T00:27:12;51.53;;;30.23;;
5674;SDS011;2860;54.284;10.158;2024-03-02T00:29:40;55.88;;;29.73;;
5674;SDS011;2860;54.284;10.158;2024-03-02T00:32:13;58.15;;;30.23;;
5674;SDS011;2860;54.284;10.158;2024-03-02T00:34:40;58.33;;;30.40;;
5674;SDS011;2860;54.284;10.158;2024-03-02T00:37:06;55.45;;;29.33;;
5674;SDS011;2860;54.284;10.158;2024-03-02T00:39:33;56.78;;;30.35;;
5674;SDS011;2860;54.284;10.158;2024-03-02T00:41:59;53.05;;;29.20;;
5674;SDS011;2860;54.284;10.158;2024-03-02T00:44:25;56.25;;;31.45;;
5674;SDS011;2860;54.284;10.158;2024-03-02T00:46:59;58.38;;;30.63;;
5674;SDS011;2860;54.284;10.158;2024-03-02T00:49:25;55.40;;;29.98;;
5674;SDS011;2860;54.284;10.158;2024-03-02T00:51:52;56.33;;;31.60;;
5674;SDS011;2860;54.284;10.158;2024-03-02T00:54:22;48.45;;;27.85;;
5674;SDS011;2860;54.284;10.158;2024-03-02T00:56:49;55.60;;;29.27;;
5674;SDS011;2860;54.284;10.158;2024-03-02T00:59:14;56.92;;;30.02;;
5674;SDS011;2860;54.284;10.158;2024-03-02T01:01:40;60.30;;;31.15;;
5674;SDS011;2860;54.284;10.158;2024-03-02T01:04:07;65.40;;;33.55;;
5674;SDS011;2860;54.284;10.158;2024-03-02T01:06:32;58.80;;;30.60;;
5674;SDS011;2860;54.284;10.158;2024-03-02T01:08:58;55.78;;;31.55;;
5674;SDS011;2860;54.284;10.158;2024-03-02T01:11:24;59.47;;;29.73;;
5674;SDS011;2860;54.284;10.158;2024-03-02T01:13:49;56.47;;;31.63;;
5674;SDS011;2860;54.284;10.158;2024-03-02T01:16:16;57.75;;;32.10;;
5674;SDS011;2860;54.284;10.158;2024-03-02T01:18:42;54.47;;;30.67;;
5674;SDS011;2860;54.284;10.158;2024-03-02T01:21:07;57.20;;;31.52;;
5674;SDS011;2860;54.284;10.158;2024-03-02T01:23:33;63.13;;;32.25;;
5674;SDS011;2860;54.284;10.158;2024-03-02T01:25:58;61.08;;;31.45;;
5674;SDS011;2860;54.284;10.158;2024-03-02T01:28:24;56.08;;;30.48;;
5674;SDS011;2860;54.284;10.158;2024-03-02T01:30:50;61.38;;;31.92;;
5674;SDS011;2860;54.284;10.158;2024-03-02T01:33:16;60.75;;;30.65;;
5674;SDS011;2860;54.284;10.158;2024-03-02T01:35:42;56.22;;;31.40;;
5674;SDS011;2860;54.284;10.158;2024-03-02T01:38:08;60.50;;;31.23;;
5674;SDS011;2860;54.284;10.158;2024-03-02T01:40:34;64.82;;;32.75;;
5674;SDS011;2860;54.284;10.158;2024-03-02T01:43:00;67.80;;;32.78;;
5674;SDS011;2860;54.284;10.158;2024-03-02T01:45:27;61.42;;;32.05;;
5674;SDS011;2860;54.284;10.158;2024-03-02T01:47:53;65.90;;;32.70;;
5674;SDS011;2860;54.284;10.158;2024-03-02T01:50:25;61.25;;;31.20;;
5674;SDS011;2860;54.284;10.158;2024-03-02T01:52:55;55.05;;;31.65;;
5674;SDS011;2860;54.284;10.158;2024-03-02T01:55:21;58.92;;;31.15;;
5674;SDS011;2860;54.284;10.158;2024-03-02T01:57:47;66.70;;;32.78;;
5674;SDS011;2860;54.284;10.158;2024-03-02T02:00:14;66.38;;;33.38;;
5674;SDS011;2860;54.284;10.158;2024-03-02T02:02:40;59.70;;;32.58;;
5674;SDS011;2860;54.284;10.158;2024-03-02T02:05:06;62.53;;;32.95;;
5674;SDS011;2860;54.284;10.158;2024-03-02T02:07:32;59.53;;;31.88;;
5674;SDS011;2860;54.284;10.158;2024-03-02T02:09:58;66.75;;;33.92;;
5674;SDS011;2860;54.284;10.158;2024-03-02T02:12:23;64.72;;;34.40;;
5674;SDS011;2860;54.284;10.158;2024-03-02T02:14:49;66.93;;;33.72;;
5674;SDS011;2860;54.284;10.158;2024-03-02T02:17:15;70.35;;;32.83;;
5674;SDS011;2860;54.284;10.158;2024-03-02T02:19:41;66.82;;;32.88;;
5674;SDS011;2860;54.284;10.158;2024-03-02T02:22:07;72.45;;;35.92;;
5674;SDS011;2860;54.284;10.158;2024-03-02T02:24:33;68.68;;;33.35;;
5674;SDS011;2860;54.284;10.158;2024-03-02T02:26:59;77.57;;;35.10;;
5674;SDS011;2860;54.284;10.158;2024-03-02T02:29:24;67.68;;;35.25;;
5674;SDS011;2860;54.284;10.158;2024-03-02T02:31:50;76.60;;;34.35;;
5674;SDS011;2860;54.284;10.158;2024-03-02T02:34:15;74.07;;;36.38;;
5674;SDS011;2860;54.284;10.158;2024-03-02T02:36:41;73.03;;;34.78;;
5674;SDS011;2860;54.284;10.158;2024-03-02T02:39:09;76.60;;;36.22;;
5674;SDS011;2860;54.284;10.158;2024-03-02T02:41:38;72.53;;;34.83;;
5674;SDS011;2860;54.284;10.158;2024-03-02T02:44:03;71.55;;;33.95;;
5674;SDS011;2860;54.284;10.158;2024-03-02T02:46:39;71.55;;;35.33;;
5674;SDS011;2860;54.284;10.158;2024-03-02T02:49:05;71.60;;;35.58;;
5674;SDS011;2860;54.284;10.158;2024-03-02T02:51:31;71.78;;;35.55;;
5674;SDS011;2860;54.284;10.158;2024-03-02T02:53:56;75.32;;;35.13;;
5674;SDS011;2860;54.284;10.158;2024-03-02T02:56:22;76.65;;;35.17;;
5674;SDS011;2860;54.284;10.158;2024-03-02T02:58:48;67.40;;;35.78;;
5674;SDS011;2860;54.284;10.158;2024-03-02T03:01:14;69.00;;;34.35;;
5674;SDS011;2860;54.284;10.158;2024-03-02T03:03:42;75.38;;;36.35;;
5674;SDS011;2860;54.284;10.158;2024-03-02T03:06:08;79.82;;;36.90;;
5674;SDS011;2860;54.284;10.158;2024-03-02T03:08:34;69.70;;;35.00;;
5674;SDS011;2860;54.284;10.158;2024-03-02T03:11:00;74.20;;;35.53;;
5674;SDS011;2860;54.284;10.158;2024-03-02T03:13:25;69.10;;;34.45;;
5674;SDS011;2860;54.284;10.158;2024-03-02T03:15:51;79.13;;;35.72;;
5674;SDS011;2860;54.284;10.158;2024-03-02T03:18:16;77.22;;;36.55;;
5674;SDS011;2860;54.284;10.158;2024-03-02T03:20:42;79.00;;;37.85;;
5674;SDS011;2860;54.284;10.158;2024-03-02T03:23:07;80.53;;;37.95;;
5674;SDS011;2860;54.284;10.158;2024-03-02T03:25:33;81.25;;;37.05;;
5674;SDS011;2860;54.284;10.158;2024-03-02T03:27:59;86.80;;;36.88;;
5674;SDS011;2860;54.284;10.158;2024-03-02T03:30:24;78.93;;;36.20;;
5674;SDS011;2860;54.284;10.158;2024-03-02T03:32:50;80.28;;;37.80;;
5674;SDS011;2860;54.284;10.158;2024-03-02T03:35:15;72.55;;;37.50;;
5674;SDS011;2860;54.284;10.158;2024-03-02T03:37:41;71.05;;;35.67;;
5674;SDS011;2860;54.284;10.158;2024-03-02T03:40:06;78.95;;;36.17;;
5674;SDS011;2860;54.284;10.158;2024-03-02T03:42:35;63.70;;;33.95;;
5674;SDS011;2860;54.284;10.158;2024-03-02T03:45:01;74.38;;;36.13;;
5674;SDS011;2860;54.284;10.158;2024-03-02T03:47:26;88.35;;;36.67;;
5674;SDS011;2860;54.284;10.158;2024-03-02T03:49:52;75.50;;;36.50;;
5674;SDS011;2860;54.284;10.158;2024-03-02T03:52:17;76.60;;;34.97;;
5674;SDS011;2860;54.284;10.158;2024-03-02T03:54:43;72.00;;;35.97;;
5674;SDS011;2860;54.284;10.158;2024-03-02T03:57:09;71.07;;;33.55;;
5674;SDS011;2860;54.284;10.158;2024-03-02T03:59:35;77.05;;;35.17;;
5674;SDS011;2860;54.284;10.158;2024-03-02T04:02:02;82.47;;;36.85;;
5674;SDS011;2860;54.284;10.158;2024-03-02T04:04:28;82.88;;;37.05;;
5674;SDS011;2860;54.284;10.158;2024-03-02T04:06:53;66.43;;;34.78;;
5674;SDS011;2860;54.284;10.158;2024-03-02T04:09:19;74.75;;;34.35;;
5674;SDS011;2860;54.284;10.158;2024-03-02T04:11:44;76.03;;;35.03;;
5674;SDS011;2860;54.284;10.158;2024-03-02T04:14:10;89.10;;;36.95;;
5674;SDS011;2860;54.284;10.158;2024-03-02T04:16:37;76.05;;;34.92;;
5674;SDS011;2860;54.284;10.158;2024-03-02T04:19:03;75.78;;;38.97;;
5674;SDS011;2860;54.284;10.158;2024-03-02T04:21:29;86.10;;;36.90;;
5674;SDS011;2860;54.284;10.158;2024-03-02T04:23:54;75.38;;;35.50;;
5674;SDS011;2860;54.284;10.158;2024-03-02T04:26:24;75.68;;;38.45;;
5674;SDS011;2860;54.284;10.158;2024-03-02T04:28:50;79.10;;;35.40;;
5674;SDS011;2860;54.284;10.158;2024-03-02T04:31:16;73.50;;;36.70;;
5674;SDS011;2860;54.284;10.158;2024-03-02T04:33:42;69.65;;;35.25;;
5674;SDS011;2860;54.284;10.158;2024-03-02T04:36:08;65.13;;;33.47;;
5674;SDS011;2860;54.284;10.158;2024-03-02T04:38:34;69.93;;;35.30;;
5674;SDS011;2860;54.284;10.158;2024-03-02T04:41:00;71.85;;;34.67;;
5674;SDS011;2860;54.284;10.158;2024-03-02T04:43:26;70.15;;;32.85;;
5674;SDS011;2860;54.284;10.158;2024-03-02T04:45:51;79.88;;;36.67;;
5674;SDS011;2860;54.284;10.158;2024-03-02T04:48:17;71.63;;;34.95;;
5674;SDS011;2860;54.284;10.158;2024-03-02T04:50:42;70.72;;;35.75;;
5674;SDS011;2860;54.284;10.158;2024-03-02T04:53:08;81.85;;;37.97;;
5674;SDS011;2860;54.284;10.158;2024-03-02T04:55:33;70.95;;;36.63;;
5674;SDS011;2860;54.284;10.158;2024-03-02T04:57:59;71.75;;;37.38;;
5674;SDS011;2860;54.284;10.158;2024-03-02T05:00:24;81.10;;;38.28;;
5674;SDS011;2860;54.284;10.158;2024-03-02T05:02:50;79.03;;;38.22;;
5674;SDS011;2860;54.284;10.158;2024-03-02T05:05:16;73.03;;;35.97;;
5674;SDS011;2860;54.284;10.158;2024-03-02T05:07:42;81.60;;;38.88;;
5674;SDS011;2860;54.284;10.158;2024-03-02T05:10:08;96.78;;;38.80;;
5674;SDS011;2860;54.284;10.158;2024-03-02T05:12:35;78.38;;;37.35;;
5674;SDS011;2860;54.284;10.158;2024-03-02T05:15:06;86.45;;;38.55;;
5674;SDS011;2860;54.284;10.158;2024-03-02T05:17:32;84.97;;;37.85;;
5674;SDS011;2860;54.284;10.158;2024-03-02T05:19:58;79.07;;;38.40;;
5674;SDS011;2860;54.284;10.158;2024-03-02T05:22:24;80.63;;;37.47;;
5674;SDS011;2860;54.284;10.158;2024-03-02T05:24:49;84.13;;;36.50;;
5674;SDS011;2860;54.284;10.158;2024-03-02T05:27:15;81.32;;;38.50;;
5674;SDS011;2860;54.284;10.158;2024-03-02T05:29:40;82.72;;;38.63;;
5674;SDS011;2860;54.284;10.158;2024-03-02T05:32:06;79.47;;;37.47;;
5674;SDS011;2860;54.284;10.158;2024-03-02T05:34:31;80.95;;;37.92;;
5674;SDS011;2860;54.284;10.158;2024-03-02T05:36:59;79.30;;;38.50;;
5674;SDS011;2860;54.284;10.158;2024-03-02T05:39:25;88.88;;;41.63;;
5674;SDS011;2860;54.284;10.158;2024-03-02T05:41:50;80.55;;;38.00;;
5674;SDS011;2860;54.284;10.158;2024-03-02T05:44:16;82.45;;;38.13;;
5674;SDS011;2860;54.284;10.158;2024-03-02T05:46:43;72.72;;;35.47;;
5674;SDS011;2860;54.284;10.158;2024-03-02T05:49:09;81.05;;;35.00;;
5674;SDS011;2860;54.284;10.158;2024-03-02T05:51:35;86.68;;;39.25;;
5674;SDS011;2860;54.284;10.158;2024-03-02T05:54:00;85.20;;;35.85;;
5674;SDS011;2860;54.284;10.158;2024-03-02T05:56:26;84.30;;;38.03;;
5674;SDS011;2860;54.284;10.158;2024-03-02T05:58:52;74.22;;;39.03;;
5674;SDS011;2860;54.284;10.158;2024-03-02T06:01:52;79.82;;;38.17;;
5674;SDS011;2860;54.284;10.158;2024-03-02T06:04:18;79.00;;;37.95;;
5674;SDS011;2860;54.284;10.158;2024-03-02T06:06:43;82.93;;;38.55;;
5674;SDS011;2860;54.284;10.158;2024-03-02T06:09:09;74.65;;;37.42;;
5674;SDS011;2860;54.284;10.158;2024-03-02T06:11:38;74.68;;;36.45;;
5674;SDS011;2860;54.284;10.158;2024-03-02T06:14:05;84.97;;;37.88;;
5674;SDS011;2860;54.284;10.158;2024-03-02T06:16:34;92.47;;;41.25;;
5674;SDS011;2860;54.284;10.158;2024-03-02T06:18:59;80.78;;;38.80;;
5674;SDS011;2860;54.284;10.158;2024-03-02T06:21:26;72.70;;;37.08;;
5674;SDS011;2860;54.284;10.158;2024-03-02T06:23:54;71.90;;;38.22;;
5674;SDS011;2860;54.284;10.158;2024-03-02T06:26:20;78.45;;;37.72;;
5674;SDS011;2860;54.284;10.158;2024-03-02T06:28:46;84.55;;;37.97;;
5674;SDS011;2860;54.284;10.158;2024-03-02T06:31:11;71.75;;;38.33;;
5674;SDS011;2860;54.284;10.158;2024-03-02T06:33:37;77.03;;;38.58;;
5674;SDS011;2860;54.284;10.158;2024-03-02T06:36:03;72.22;;;38.03;;
5674;SDS011;2860;54.284;10.158;2024-03-02T06:38:29;81.75;;;37.65;;
5674;SDS011;2860;54.284;10.158;2024-03-02T06:40:57;67.82;;;35.75;;
5674;SDS011;2860;54.284;10.158;2024-03-02T06:43:22;70.57;;;37.78;;
5674;SDS011;2860;54.284;10.158;2024-03-02T06:45:49;71.32;;;36.45;;
5674;SDS011;2860;54.284;10.158;2024-03-02T06:48:15;75.03;;;34.95;;
5674;SDS011;2860;54.284;10.158;2024-03-02T06:50:44;73.93;;;34.28;;
5674;SDS011;2860;54.284;10.158;2024-03-02T06:53:13;75.97;;;37.85;;
5674;SDS011;2860;54.284;10.158;2024-03-02T06:55:42;70.05;;;35.30;;
5674;SDS011;2860;54.284;10.158;2024-03-02T06:58:11;80.20;;;37.45;;
5674;SDS011;2860;54.284;10.158;2024-03-02T07:00:37;69.55;;;34.80;;
5674;SDS011;2860;54.284;10.158;2024-03-02T07:03:03;69.63;;;35.45;;
5674;SDS011;2860;54.284;10.158;2024-03-02T07:05:29;64.63;;;36.85;;
5674;SDS011;2860;54.284;10.158;2024-03-02T07:07:54;85.57;;;37.33;;
5674;SDS011;2860;54.284;10.158;2024-03-02T07:10:20;74.72;;;36.88;;
5674;SDS011;2860;54.284;10.158;2024-03-02T07:12:45;68.95;;;37.28;;
5674;SDS011;2860;54.284;10.158;2024-03-02T07:15:11;65.72;;;33.88;;
5674;SDS011;2860;54.284;10.158;2024-03-02T07:17:48;67.47;;;38.17;;
5674;SDS011;2860;54.284;10.158;2024-03-02T07:20:14;63.78;;;35.75;;
5674;SDS011;2860;54.284;10.158;2024-03-02T07:22:39;72.63;;;36.85;;
5674;SDS011;2860;54.284;10.158;2024-03-02T07:25:05;70.28;;;37.60;;
5674;SDS011;2860;54.284;10.158;2024-03-02T07:27:32;75.78;;;35.85;;
5674;SDS011;2860;54.284;10.158;2024-03-02T07:29:58;68.03;;;35.33;;
5674;SDS011;2860;54.284;10.158;2024-03-02T07:32:24;68.88;;;34.30;;
5674;SDS011;2860;54.284;10.158;2024-03-02T07:34:49;59.35;;;33.40;;
5674;SDS011;2860;54.284;10.158;2024-03-02T07:37:16;65.57;;;34.42;;
5674;SDS011;2860;54.284;10.158;2024-03-02T07:39:41;59.88;;;34.25;;
5674;SDS011;2860;54.284;10.158;2024-03-02T07:42:08;65.00;;;34.28;;
5674;SDS011;2860;54.284;10.158;2024-03-02T07:44:34;63.90;;;33.85;;
5674;SDS011;2860;54.284;10.158;2024-03-02T07:46:59;57.03;;;31.33;;
5674;SDS011;2860;54.284;10.158;2024-03-02T07:49:25;60.72;;;32.55;;
5674;SDS011;2860;54.284;10.158;2024-03-02T07:51:50;55.00;;;32.75;;
5674;SDS011;2860;54.284;10.158;2024-03-02T07:54:16;54.63;;;31.52;;
5674;SDS011;2860;54.284;10.158;2024-03-02T07:56:41;62.38;;;32.05;;
5674;SDS011;2860;54.284;10.158;2024-03-02T07:59:07;57.78;;;32.80;;
5674;SDS011;2860;54.284;10.158;2024-03-02T08:01:33;51.85;;;31.08;;
5674;SDS011;2860;54.284;10.158;2024-03-02T08:03:59;50.40;;;31.63;;
5674;SDS011;2860;54.284;10.158;2024-03-02T08:06:26;52.80;;;29.92;;
5674;SDS011;2860;54.284;10.158;2024-03-02T08:08:54;50.22;;;30.08;;
5674;SDS011;2860;54.284;10.158;2024-03-02T08:11:21;52.17;;;28.88;;
5674;SDS011;2860;54.284;10.158;2024-03-02T08:13:47;50.05;;;30.02;;
5674;SDS011;2860;54.284;10.158;2024-03-02T08:16:13;51.63;;;29.63;;
5674;SDS011;2860;54.284;10.158;2024-03-02T08:18:44;49.33;;;29.85;;
5674;SDS011;2860;54.284;10.158;2024-03-02T08:21:11;46.83;;;27.05;;
5674;SDS011;2860;54.284;10.158;2024-03-02T08:23:37;46.50;;;28.67;;
5674;SDS011;2860;54.284;10.158;2024-03-02T08:26:03;46.90;;;28.15;;
5674;SDS011;2860;54.284;10.158;2024-03-02T08:28:29;46.15;;;26.67;;
5674;SDS011;2860;54.284;10.158;2024-03-02T08:30:54;41.75;;;27.10;;
5674;SDS011;2860;54.284;10.158;2024-03-02T08:33:20;46.28;;;28.02;;
5674;SDS011;2860;54.284;10.158;2024-03-02T08:35:46;46.17;;;27.45;;
5674;SDS011;2860;54.284;10.158;2024-03-02T08:38:12;45.15;;;27.40;;
5674;SDS011;2860;54.284;10.158;2024-03-02T08:40:37;44.47;;;28.67;;
5674;SDS011;2860;54.284;10.158;2024-03-02T08:43:03;47.00;;;28.75;;
5674;SDS011;2860;54.284;10.158;2024-03-02T08:45:28;46.83;;;28.77;;
5674;SDS011;2860;54.284;10.158;2024-03-02T08:47:54;49.72;;;27.38;;
5674;SDS011;2860;54.284;10.158;2024-03-02T08:50:19;48.83;;;29.13;;
5674;SDS011;2860;54.284;10.158;2024-03-02T08:52:45;47.80;;;28.90;;
5674;SDS011;2860;54.284;10.158;2024-03-02T08:55:10;41.90;;;27.35;;
5674;SDS011;2860;54.284;10.158;2024-03-02T08:57:36;44.25;;;28.20;;
5674;SDS011;2860;54.284;10.158;2024-03-02T09:00:05;46.35;;;27.35;;
5674;SDS011;2860;54.284;10.158;2024-03-02T09:02:32;42.10;;;27.98;;
5674;SDS011;2860;54.284;10.158;2024-03-02T09:04:58;44.38;;;27.50;;
5674;SDS011;2860;54.284;10.158;2024-03-02T09:07:23;41.30;;;27.83;;
5674;SDS011;2860;54.284;10.158;2024-03-02T09:09:49;39.05;;;26.70;;
5674;SDS011;2860;54.284;10.158;2024-03-02T09:12:14;43.42;;;26.98;;
5674;SDS011;2860;54.284;10.158;2024-03-02T09:14:40;37.53;;;24.83;;
5674;SDS011;2860;54.284;10.158;2024-03-02T09:17:06;41.97;;;25.55;;
5674;SDS011;2860;54.284;10.158;2024-03-02T09:19:31;44.78;;;26.23;;
5674;SDS011;2860;54.284;10.158;2024-03-02T09:21:57;43.08;;;27.30;;
5674;SDS011;2860;54.284;10.158;2024-03-02T09:24:23;38.58;;;25.25;;
5674;SDS011;2860;54.284;10.158;2024-03-02T09:26:49;34.30;;;23.58;;
5674;SDS011;2860;54.284;10.158;2024-03-02T09:29:15;34.40;;;22.55;;
5674;SDS011;2860;54.284;10.158;2024-03-02T09:31:40;30.52;;;22.00;;
5674;SDS011;2860;54.284;10.158;2024-03-02T09:34:06;32.72;;;21.70;;
5674;SDS011;2860;54.284;10.158;2024-03-02T09:36:32;31.23;;;21.05;;
5674;SDS011;2860;54.284;10.158;2024-03-02T09:38:58;32.60;;;21.60;;
5674;SDS011;2860;54.284;10.158;2024-03-02T09:41:23;31.80;;;20.95;;
5674;SDS011;2860;54.284;10.158;2024-03-02T09:43:49;32.97;;;21.48;;
5674;SDS011;2860;54.284;10.158;2024-03-02T09:46:15;31.40;;;21.90;;
5674;SDS011;2860;54.284;10.158;2024-03-02T09:48:41;34.08;;;22.15;;
5674;SDS011;2860;54.284;10.158;2024-03-02T09:51:06;27.48;;;21.63;;
5674;SDS011;2860;54.284;10.158;2024-03-02T09:53:33;30.52;;;20.63;;
5674;SDS011;2860;54.284;10.158;2024-03-02T09:55:59;27.60;;;20.80;;
5674;SDS011;2860;54.284;10.158;2024-03-02T09:58:25;28.65;;;20.92;;
5674;SDS011;2860;54.284;10.158;2024-03-02T10:00:51;36.53;;;20.92;;
5674;SDS011;2860;54.284;10.158;2024-03-02T10:03:17;30.33;;;19.98;;
5674;SDS011;2860;54.284;10.158;2024-03-02T10:05:44;27.73;;;20.00;;
5674;SDS011;2860;54.284;10.158;2024-03-02T10:08:09;29.05;;;19.55;;
5674;SDS011;2860;54.284;10.158;2024-03-02T10:10:38;22.08;;;18.52;;
5674;SDS011;2860;54.284;10.158;2024-03-02T10:13:09;25.58;;;18.65;;
5674;SDS011;2860;54.284;10.158;2024-03-02T10:15:35;24.17;;;19.23;;
5674;SDS011;2860;54.284;10.158;2024-03-02T10:18:05;25.27;;;18.73;;
5674;SDS011;2860;54.284;10.158;2024-03-02T10:20:35;27.05;;;19.42;;
5674;SDS011;2860;54.284;10.158;2024-03-02T10:23:14;27.08;;;19.58;;
5674;SDS011;2860;54.284;10.158;2024-03-02T10:25:41;25.85;;;18.75;;
5674;SDS011;2860;54.284;10.158;2024-03-02T10:28:08;27.95;;;19.35;;
5674;SDS011;2860;54.284;10.158;2024-03-02T10:30:34;29.48;;;20.23;;
5674;SDS011;2860;54.284;10.158;2024-03-02T10:33:00;29.42;;;20.38;;
5674;SDS011;2860;54.284;10.158;2024-03-02T10:35:27;26.13;;;18.00;;
5674;SDS011;2860;54.284;10.158;2024-03-02T10:37:52;29.58;;;19.42;;
5674;SDS011;2860;54.284;10.158;2024-03-02T10:40:21;23.70;;;19.10;;
5674;SDS011;2860;54.284;10.158;2024-03-02T10:42:47;26.25;;;19.73;;
5674;SDS011;2860;54.284;10.158;2024-03-02T10:45:15;27.40;;;19.83;;
5674;SDS011;2860;54.284;10.158;2024-03-02T10:47:42;29.13;;;19.20;;
5674;SDS011;2860;54.284;10.158;2024-03-02T10:50:09;28.45;;;19.50;;
5674;SDS011;2860;54.284;10.158;2024-03-02T10:52:35;24.20;;;19.45;;
5674;SDS011;2860;54.284;10.158;2024-03-02T10:55:01;26.08;;;19.98;;
5674;SDS011;2860;54.284;10.158;2024-03-02T10:57:31;27.20;;;19.23;;
5674;SDS011;2860;54.284;10.158;2024-03-02T11:00:04;26.67;;;19.35;;
5674;SDS011;2860;54.284;10.158;2024-03-02T11:02:32;24.25;;;19.00;;
5674;SDS011;2860;54.284;10.158;2024-03-02T11:05:01;27.48;;;18.55;;
5674;SDS011;2860;54.284;10.158;2024-03-02T11:07:32;25.33;;;18.48;;
5674;SDS011;2860;54.284;10.158;2024-03-02T11:10:01;25.23;;;17.27;;
5674;SDS011;2860;54.284;10.158;2024-03-02T11:12:35;22.85;;;17.95;;
5674;SDS011;2860;54.284;10.158;2024-03-02T11:15:04;25.73;;;18.10;;
5674;SDS011;2860;54.284;10.158;2024-03-02T11:17:35;27.38;;;18.05;;
5674;SDS011;2860;54.284;10.158;2024-03-02T11:20:02;22.67;;;17.63;;
5674;SDS011;2860;54.284;10.158;2024-03-02T11:22:29;21.90;;;18.27;;
5674;SDS011;2860;54.284;10.158;2024-03-02T11:24:55;23.05;;;17.65;;
5674;SDS011;2860;54.284;10.158;2024-03-02T11:30:38;23.40;;;18.42;;
5674;SDS011;2860;54.284;10.158;2024-03-02T11:32:59;31.30;;;19.63;;
5674;SDS011;2860;54.284;10.158;2024-03-02T11:35:34;25.25;;;18.52;;
5674;SDS011;2860;54.284;10.158;2024-03-02T11:38:02;26.13;;;19.15;;
5674;SDS011;2860;54.284;10.158;2024-03-02T11:40:28;27.55;;;18.65;;
5674;SDS011;2860;54.284;10.158;2024-03-02T11:42:55;20.48;;;17.23;;
5674;SDS011;2860;54.284;10.158;2024-03-02T11:45:27;22.98;;;17.27;;
5674;SDS011;2860;54.284;10.158;2024-03-02T11:47:57;21.27;;;15.75;;
5674;SDS011;2860;54.284;10.158;2024-03-02T11:50:57;23.50;;;17.88;;
5674;SDS011;2860;54.284;10.158;2024-03-02T11:53:14;25.67;;;17.30;;
5674;SDS011;2860;54.284;10.158;2024-03-02T11:55:43;24.73;;;15.70;;
5674;SDS011;2860;54.284;10.158;2024-03-02T11:58:11;21.30;;;17.15;;
5674;SDS011;2860;54.284;10.158;2024-03-02T12:00:37;24.92;;;18.95;;
5674;SDS011;2860;54.284;10.158;2024-03-02T12:03:07;23.25;;;17.73;;
5674;SDS011;2860;54.284;10.158;2024-03-02T12:05:34;24.05;;;16.65;;
5674;SDS011;2860;54.284;10.158;2024-03-02T12:08:01;20.65;;;17.05;;
5674;SDS011;2860;54.284;10.158;2024-03-02T12:10:28;25.13;;;16.67;;
5674;SDS011;2860;54.284;10.158;2024-03-02T12:12:57;28.73;;;19.63;;
5674;SDS011;2860;54.284;10.158;2024-03-02T12:15:27;26.05;;;18.75;;
5674;SDS011;2860;54.284;10.158;2024-03-02T12:17:57;25.15;;;19.27;;
5674;SDS011;2860;54.284;10.158;2024-03-02T12:20:24;31.23;;;20.40;;
5674;SDS011;2860;54.284;10.158;2024-03-02T12:22:51;30.40;;;21.60;;
5674;SDS011;2860;54.284;10.158;2024-03-02T12:25:18;31.90;;;20.00;;
5674;SDS011;2860;54.284;10.158;2024-03-02T12:27:47;26.95;;;20.17;;
5674;SDS011;2860;54.284;10.158;2024-03-02T12:30:18;27.25;;;20.27;;
5674;SDS011;2860;54.284;10.158;2024-03-02T12:32:44;28.08;;;20.48;;
5674;SDS011;2860;54.284;10.158;2024-03-02T12:35:10;22.92;;;19.75;;
5674;SDS011;2860;54.284;10.158;2024-03-02T12:37:43;28.05;;;21.02;;
5674;SDS011;2860;54.284;10.158;2024-03-02T12:40:12;33.72;;;19.42;;
5674;SDS011;2860;54.284;10.158;2024-03-02T12:42:39;26.55;;;19.52;;
5674;SDS011;2860;54.284;10.158;2024-03-02T12:45:06;28.48;;;20.33;;
5674;SDS011;2860;54.284;10.158;2024-03-02T12:47:33;26.10;;;20.80;;
5674;SDS011;2860;54.284;10.158;2024-03-02T12:49:59;25.65;;;19.55;;
5674;SDS011;2860;54.284;10.158;2024-03-02T12:52:25;33.83;;;20.85;;
5674;SDS011;2860;54.284;10.158;2024-03-02T12:54:51;29.15;;;19.58;;
5674;SDS011;2860;54.284;10.158;2024-03-02T12:57:20;31.45;;;21.30;;
5674;SDS011;2860;54.284;10.158;2024-03-02T12:59:46;27.58;;;20.75;;
5674;SDS011;2860;54.284;10.158;2024-03-02T13:02:18;28.13;;;21.60;;
5674;SDS011;2860;54.284;10.158;2024-03-02T13:04:44;28.85;;;22.38;;
5674;SDS011;2860;54.284;10.158;2024-03-02T13:07:10;34.83;;;26.80;;
5674;SDS011;2860;54.284;10.158;2024-03-02T13:09:38;32.15;;;20.70;;
5674;SDS011;2860;54.284;10.158;2024-03-02T13:12:04;30.55;;;20.02;;
5674;SDS011;2860;54.284;10.158;2024-03-02T13:14:33;24.77;;;20.42;;
5674;SDS011;2860;54.284;10.158;2024-03-02T13:17:00;26.30;;;20.05;;
5674;SDS011;2860;54.284;10.158;2024-03-02T13:19:28;29.25;;;19.88;;
5674;SDS011;2860;54.284;10.158;2024-03-02T13:21:55;27.73;;;19.95;;
5674;SDS011;2860;54.284;10.158;2024-03-02T13:24:22;26.67;;;19.90;;
5674;SDS011;2860;54.284;10.158;2024-03-02T13:26:50;24.50;;;18.42;;
5674;SDS011;2860;54.284;10.158;2024-03-02T13:29:20;24.58;;;18.98;;
5674;SDS011;2860;54.284;10.158;2024-03-02T13:31:46;22.70;;;17.55;;
5674;SDS011;2860;54.284;10.158;2024-03-02T13:34:11;19.42;;;17.08;;
5674;SDS011;2860;54.284;10.158;2024-03-02T13:36:37;22.42;;;17.98;;
5674;SDS011;2860;54.284;10.158;2024-03-02T13:39:03;27.13;;;18.63;;
5674;SDS011;2860;54.284;10.158;2024-03-02T13:41:30;23.88;;;18.30;;
5674;SDS011;2860;54.284;10.158;2024-03-02T13:43:56;23.40;;;18.98;;
5674;SDS011;2860;54.284;10.158;2024-03-02T13:46:26;24.23;;;18.42;;
5674;SDS011;2860;54.284;10.158;2024-03-02T13:48:51;25.48;;;19.00;;
5674;SDS011;2860;54.284;10.158;2024-03-02T13:51:17;29.17;;;21.75;;
5674;SDS011;2860;54.284;10.158;2024-03-02T13:53:42;24.60;;;19.05;;
5674;SDS011;2860;54.284;10.158;2024-03-02T13:56:08;23.23;;;17.60;;
5674;SDS011;2860;54.284;10.158;2024-03-02T13:58:33;21.35;;;17.80;;
5674;SDS011;2860;54.284;10.158;2024-03-02T14:00:59;21.20;;;17.77;;
5674;SDS011;2860;54.284;10.158;2024-03-02T14:03:26;22.65;;;17.08;;
5674;SDS011;2860;54.284;10.158;2024-03-02T14:05:52;19.83;;;16.88;;
5674;SDS011;2860;54.284;10.158;2024-03-02T14:08:18;23.10;;;17.75;;
5674;SDS011;2860;54.284;10.158;2024-03-02T14:10:43;24.08;;;17.80;;
5674;SDS011;2860;54.284;10.158;2024-03-02T14:13:09;22.17;;;16.45;;
5674;SDS011;2860;54.284;10.158;2024-03-02T14:15:34;23.30;;;16.70;;
5674;SDS011;2860;54.284;10.158;2024-03-02T14:18:03;21.08;;;16.02;;
5674;SDS011;2860;54.284;10.158;2024-03-02T14:20:29;20.02;;;15.57;;
5674;SDS011;2860;54.284;10.158;2024-03-02T14:22:54;24.10;;;17.33;;
5674;SDS011;2860;54.284;10.158;2024-03-02T14:25:20;23.75;;;16.50;;
5674;SDS011;2860;54.284;10.158;2024-03-02T14:27:45;22.20;;;16.42;;
5674;SDS011;2860;54.284;10.158;2024-03-02T14:30:12;20.38;;;15.25;;
5674;SDS011;2860;54.284;10.158;2024-03-02T14:32:38;20.70;;;15.75;;